createdAt,value
2019-04-26T00:00:34.623Z,99.90
2019-04-26T00:03:07.780Z,99.90
2019-04-26T00:05:38.662Z,99.90
2019-04-26T00:08:10.377Z,99.90
2019-04-26T00:10:49.498Z,99.90
2019-04-26T00:13:35.123Z,99.90
2019-04-26T00:16:18.901Z,99.90
2019-04-26T00:18:48.308Z,99.90
2019-04-26T00:21:18.333Z,99.90
2019-04-26T00:23:48.258Z,99.90
2019-04-26T00:26:18.420Z,99.90
2019-04-26T00:28:47.765Z,99.90
2019-04-26T00:31:17.261Z,99.90
2019-04-26T00:33:46.922Z,99.90
2019-04-26T00:36:16.658Z,99.90
2019-04-26T00:38:46.398Z,99.90
2019-04-26T00:41:16.644Z,99.90
2019-04-26T00:43:47.098Z,99.90
2019-04-26T00:46:18.857Z,99.90
2019-04-26T00:48:50.074Z,99.90
2019-04-26T00:51:19.724Z,99.90
2019-04-26T00:53:50.671Z,99.90
2019-04-26T00:56:20.649Z,99.90
2019-04-26T00:58:51.367Z,99.90
2019-04-26T01:01:22.849Z,99.90
2019-04-26T01:03:52.536Z,99.90
2019-04-26T01:06:23.825Z,99.90
2019-04-26T01:08:53.226Z,99.90
2019-04-26T01:11:22.574Z,99.90
2019-04-26T01:13:51.923Z,99.90
2019-04-26T01:16:22.162Z,99.90
2019-04-26T01:18:53.995Z,99.90
2019-04-26T01:21:26.901Z,99.90
2019-04-26T01:23:59.648Z,99.90
2019-04-26T01:26:33.554Z,99.90
2019-04-26T01:29:07.655Z,99.90
2019-04-26T01:31:42.854Z,99.90
2019-04-26T01:34:12.202Z,99.90
2019-04-26T01:36:42.659Z,99.90
2019-04-26T01:39:21.289Z,99.90
2019-04-26T01:42:17.505Z,99.90
2019-04-26T01:45:04.051Z,99.90
2019-04-26T01:47:33.891Z,99.90
2019-04-26T01:50:03.870Z,99.90
2019-04-26T01:52:33.288Z,99.90
2019-04-26T01:55:02.716Z,99.90
2019-04-26T01:57:33.168Z,99.90
2019-04-26T02:00:15.585Z,99.90
2019-04-26T02:02:57.974Z,99.90
2019-04-26T02:05:28.028Z,99.90
2019-04-26T02:07:58.046Z,99.90
2019-04-26T02:10:28.720Z,99.90
2019-04-26T02:13:00.051Z,99.90
2019-04-26T02:15:33.360Z,99.90
2019-04-26T02:18:04.919Z,99.90
2019-04-26T02:20:56.511Z,99.90
2019-04-26T02:23:34.620Z,99.90
2019-04-26T02:26:21.638Z,99.90
2019-04-26T02:28:51.490Z,99.90
2019-04-26T02:31:20.853Z,99.90
2019-04-26T02:33:51.371Z,99.90
2019-04-26T02:36:22.114Z,99.90
2019-04-26T02:38:54.159Z,99.90
2019-04-26T02:41:23.575Z,99.90
2019-04-26T02:43:56.027Z,99.90
2019-04-26T02:46:39.035Z,99.90
2019-04-26T02:49:24.462Z,99.90
2019-04-26T02:52:01.274Z,99.90
2019-04-26T02:54:45.794Z,99.90
2019-04-26T02:57:38.859Z,99.90
2019-04-26T03:00:12.929Z,99.90
2019-04-26T03:02:44.428Z,99.90
2019-04-26T03:05:14.762Z,99.90
2019-04-26T03:08:10.159Z,99.90
2019-04-26T03:10:45.190Z,99.90
2019-04-26T03:13:27.567Z,99.90
2019-04-26T03:16:10.168Z,99.90
2019-04-26T03:18:55.586Z,99.90
2019-04-26T03:21:34.526Z,99.90
2019-04-26T03:24:17.844Z,99.90
2019-04-26T03:27:20.645Z,99.90
2019-04-26T03:30:22.312Z,99.90
2019-04-26T03:33:25.784Z,99.90
2019-04-26T03:36:25.117Z,99.90
2019-04-26T03:39:08.069Z,99.90
2019-04-26T03:42:05.024Z,99.90
2019-04-26T03:44:53.643Z,99.90
2019-04-26T03:47:27.015Z,99.90
2019-04-26T03:50:25.197Z,99.90
2019-04-26T03:53:32.608Z,99.90
2019-04-26T03:56:24.984Z,99.90
2019-04-26T03:59:11.287Z,99.90
2019-04-26T04:01:50.760Z,99.90
2019-04-26T04:04:46.658Z,99.90
2019-04-26T04:07:35.670Z,99.90
2019-04-26T04:09:56.041Z,99.90
2019-04-26T04:12:36.215Z,99.90
2019-04-26T04:15:15.940Z,99.90
2019-04-26T04:17:55.180Z,99.90
2019-04-26T04:20:48.269Z,99.90
2019-04-26T04:23:30.947Z,99.90
2019-04-26T04:26:03.364Z,99.90
2019-04-26T04:28:44.530Z,99.90
2019-04-26T04:31:23.837Z,99.90
2019-04-26T04:34:13.444Z,99.90
2019-04-26T04:36:51.549Z,99.90
2019-04-26T04:39:35.403Z,99.90
2019-04-26T04:42:50.476Z,99.90
2019-04-26T04:46:04.324Z,99.90
2019-04-26T04:49:09.473Z,99.90
2019-04-26T04:52:17.139Z,99.90
2019-04-26T04:55:06.355Z,99.90
2019-04-26T04:57:50.439Z,99.90
2019-04-26T05:00:58.804Z,99.90
2019-04-26T05:03:42.356Z,99.90
2019-04-26T05:06:49.834Z,99.90
2019-04-26T05:09:34.385Z,99.90
2019-04-26T05:12:15.195Z,99.90
2019-04-26T05:15:15.897Z,99.90
2019-04-26T05:18:22.027Z,99.90
2019-04-26T05:21:25.409Z,99.90
2019-04-26T05:24:35.770Z,99.90
2019-04-26T05:27:34.003Z,99.90
2019-04-26T05:30:40.730Z,99.90
2019-04-26T05:33:36.670Z,99.90
2019-04-26T05:36:31.867Z,99.90
2019-04-26T05:39:09.968Z,99.90
2019-04-26T05:42:38.040Z,99.90
2019-04-26T05:45:59.263Z,99.90
2019-04-26T05:48:55.859Z,99.90
2019-04-26T05:52:18.817Z,99.90
2019-04-26T05:55:33.379Z,99.90
2019-04-26T05:58:43.866Z,99.90
2019-04-26T06:02:20.569Z,99.90
2019-04-26T06:05:23.066Z,99.90
2019-04-26T06:08:10.321Z,99.90
2019-04-26T06:10:50.059Z,99.90
2019-04-26T06:13:45.624Z,99.90
2019-04-26T06:16:32.943Z,99.90
2019-04-26T06:19:49.241Z,99.90
2019-04-26T06:22:35.439Z,99.90
2019-04-26T06:25:55.590Z,99.90
2019-04-26T06:29:01.063Z,99.90
2019-04-26T06:31:38.581Z,99.90
2019-04-26T06:34:20.199Z,99.90
2019-04-26T06:37:06.017Z,99.90
2019-04-26T06:39:45.402Z,99.90
2019-04-26T06:43:02.831Z,99.90
2019-04-26T06:46:47.507Z,99.90
2019-04-26T06:49:53.060Z,99.90
2019-04-26T06:52:26.360Z,99.90
2019-04-26T06:55:06.794Z,99.90
2019-04-26T06:58:18.308Z,99.90
2019-04-26T07:01:14.467Z,99.90
2019-04-26T07:04:16.856Z,99.90
2019-04-26T07:07:11.596Z,99.90
2019-04-26T07:10:31.376Z,99.90
2019-04-26T07:13:34.228Z,99.90
2019-04-26T07:16:23.427Z,99.90
2019-04-26T07:19:20.046Z,99.90
2019-04-26T07:22:35.487Z,99.90
2019-04-26T07:25:26.892Z,99.90
2019-04-26T07:28:39.946Z,99.90
2019-04-26T07:31:22.437Z,99.90
2019-04-26T07:34:30.771Z,99.90
2019-04-26T07:37:39.722Z,99.90
2019-04-26T07:40:53.550Z,99.90
2019-04-26T07:44:02.767Z,99.90
2019-04-26T07:47:18.707Z,99.90
2019-04-26T07:50:24.979Z,99.90
2019-04-26T07:53:11.267Z,99.90
2019-04-26T07:55:54.379Z,99.90
2019-04-26T07:59:29.110Z,99.90
2019-04-26T08:02:27.535Z,99.90
2019-04-26T08:05:05.580Z,99.90
2019-04-26T08:07:40.876Z,99.90
2019-04-26T08:10:17.319Z,99.90
2019-04-26T08:12:57.523Z,99.90
2019-04-26T08:16:04.906Z,99.90
2019-04-26T08:18:57.018Z,99.90
2019-04-26T08:21:32.023Z,99.90
2019-04-26T08:24:27.855Z,99.90
2019-04-26T08:27:18.669Z,99.90
2019-04-26T08:29:46.078Z,99.90
2019-04-26T08:32:28.191Z,99.90
2019-04-26T08:35:08.116Z,99.90
2019-04-26T08:37:46.365Z,99.90
2019-04-26T08:40:26.547Z,99.90
2019-04-26T08:42:59.310Z,99.90
2019-04-26T08:45:40.495Z,99.90
2019-04-26T08:48:37.252Z,99.90
2019-04-26T08:51:16.438Z,99.90
2019-04-26T08:53:44.636Z,99.90
2019-04-26T08:56:17.247Z,99.90
2019-04-26T08:58:49.529Z,99.90
2019-04-26T09:01:59.434Z,99.90
2019-04-26T09:04:39.642Z,99.90
2019-04-26T09:07:16.122Z,99.90
2019-04-26T09:09:57.159Z,99.90
2019-04-26T09:12:23.665Z,99.90
2019-04-26T09:14:55.593Z,99.90
2019-04-26T09:17:27.722Z,99.90
2019-04-26T09:19:58.127Z,99.90
2019-04-26T09:22:56.596Z,99.90
2019-04-26T09:25:34.569Z,99.90
2019-04-26T09:28:24.090Z,99.90
2019-04-26T09:31:01.515Z,99.90
2019-04-26T09:33:53.160Z,99.90
2019-04-26T09:36:22.503Z,97.40
2019-04-26T09:38:51.847Z,98.40
2019-04-26T09:41:21.227Z,96.30
2019-04-26T09:44:04.986Z,96.40
2019-04-26T09:46:52.750Z,96.30
2019-04-26T09:49:37.327Z,95.90
2019-04-26T09:52:10.779Z,95.50
2019-04-26T09:54:40.122Z,94.10
2019-04-26T09:57:09.549Z,94.00
2019-04-26T09:59:39.945Z,91.60
2019-04-26T10:02:10.866Z,91.00
2019-04-26T10:04:40.226Z,92.20
2019-04-26T10:07:09.639Z,92.00
2019-04-26T10:09:38.984Z,91.50
2019-04-26T10:12:16.545Z,91.10
2019-04-26T10:14:54.345Z,91.60
2019-04-26T10:17:33.427Z,91.70
2019-04-26T10:20:02.776Z,90.50
2019-04-26T10:22:32.902Z,91.20
2019-04-26T10:25:07.082Z,90.80
2019-04-26T10:27:36.406Z,90.30
2019-04-26T10:30:09.178Z,89.80
2019-04-26T10:32:37.651Z,88.40
2019-04-26T10:35:07.579Z,88.20
2019-04-26T10:37:39.765Z,87.50
2019-04-26T10:40:07.999Z,85.90
2019-04-26T10:42:37.415Z,85.30
2019-04-26T10:45:10.417Z,83.90
2019-04-26T10:47:40.494Z,82.20
2019-04-26T10:50:11.583Z,79.30
2019-04-26T10:53:05.834Z,80.50
2019-04-26T10:55:52.683Z,76.40
2019-04-26T10:58:31.923Z,74.30
2019-04-26T11:01:04.347Z,72.20
2019-04-26T11:03:35.049Z,73.10
2019-04-26T11:06:04.818Z,70.80
2019-04-26T11:08:34.154Z,68.90
2019-04-26T11:11:03.586Z,67.30
2019-04-26T11:13:32.945Z,68.30
2019-04-26T11:16:06.629Z,65.80
2019-04-26T11:18:33.418Z,66.10
2019-04-26T11:21:02.767Z,66.50
2019-04-26T11:23:32.139Z,64.80
2019-04-26T11:26:02.875Z,62.60
2019-04-26T11:28:32.456Z,59.60
2019-04-26T11:31:01.796Z,61.60
2019-04-26T11:33:31.139Z,61.90
2019-04-26T11:36:03.412Z,60.50
2019-04-26T11:38:32.692Z,59.70
2019-04-26T11:41:06.141Z,62.30
2019-04-26T11:43:33.448Z,61.30
2019-04-26T11:46:04.645Z,62.30
2019-04-26T11:48:33.847Z,63.10
2019-04-26T11:51:03.185Z,64.40
2019-04-26T11:53:33.553Z,63.70
2019-04-26T11:56:04.563Z,63.90
2019-04-26T11:58:34.484Z,65.00
2019-04-26T12:01:05.414Z,65.60
2019-04-26T12:03:34.770Z,66.30
2019-04-26T12:06:10.313Z,65.40
2019-04-26T12:08:45.839Z,65.20
2019-04-26T12:11:18.619Z,64.20
2019-04-26T12:13:46.250Z,65.30
2019-04-26T12:16:18.885Z,63.00
2019-04-26T12:18:46.656Z,64.50
2019-04-26T12:21:16.063Z,63.60
2019-04-26T12:23:45.403Z,64.70
2019-04-26T12:26:17.317Z,64.70
2019-04-26T12:28:45.847Z,64.80
2019-04-26T12:31:15.339Z,62.70
2019-04-26T12:33:45.203Z,61.10
2019-04-26T12:36:15.258Z,61.60
2019-04-26T12:38:44.603Z,60.70
2019-04-26T12:41:17.177Z,59.00
2019-04-26T12:43:45.006Z,58.50
2019-04-26T12:46:33.283Z,56.40
2019-04-26T12:49:02.618Z,56.10
2019-04-26T12:51:31.949Z,55.20
2019-04-26T12:54:03.644Z,55.60
2019-04-26T12:56:32.803Z,53.70
2019-04-26T12:59:02.477Z,52.90
2019-04-26T13:01:31.839Z,52.10
2019-04-26T13:04:05.471Z,50.80
2019-04-26T13:06:38.798Z,50.40
2019-04-26T13:09:15.621Z,49.60
2019-04-26T13:12:06.998Z,49.10
2019-04-26T13:14:54.887Z,49.70
2019-04-26T13:17:31.333Z,49.60
2019-04-26T13:20:00.767Z,48.60
2019-04-26T13:22:32.019Z,48.80
2019-04-26T13:25:01.237Z,48.60
2019-04-26T13:27:30.627Z,48.60
2019-04-26T13:30:02.601Z,47.50
2019-04-26T13:32:31.278Z,46.30
2019-04-26T13:35:00.611Z,46.90
2019-04-26T13:37:32.206Z,46.70
2019-04-26T13:40:01.033Z,47.90
2019-04-26T13:42:30.442Z,48.50
2019-04-26T13:45:10.996Z,48.10
2019-04-26T13:47:53.807Z,48.70
2019-04-26T13:50:34.255Z,48.90
2019-04-26T13:53:03.894Z,50.50
2019-04-26T13:55:33.836Z,50.20
2019-04-26T13:58:03.530Z,50.10
2019-04-26T14:00:33.458Z,50.70
2019-04-26T14:03:02.794Z,49.20
2019-04-26T14:05:32.142Z,49.20
2019-04-26T14:08:01.487Z,49.10
2019-04-26T14:10:31.031Z,48.50
2019-04-26T14:13:00.363Z,47.10
2019-04-26T14:15:30.407Z,47.10
2019-04-26T14:18:00.213Z,48.10
2019-04-26T14:20:31.111Z,48.50
2019-04-26T14:23:37.411Z,49.60
2019-04-26T14:26:09.497Z,51.10
2019-04-26T14:28:41.805Z,50.80
2019-04-26T14:31:12.267Z,49.10
2019-04-26T14:33:41.580Z,46.90
2019-04-26T14:36:17.488Z,47.20
2019-04-26T14:38:41.987Z,45.00
2019-04-26T14:41:13.282Z,46.40
2019-04-26T14:43:42.406Z,45.50
2019-04-26T14:46:14.484Z,45.00
2019-04-26T14:48:44.774Z,45.70
2019-04-26T14:51:16.752Z,45.20
2019-04-26T14:53:45.045Z,45.70
2019-04-26T14:56:14.391Z,44.00
2019-04-26T14:58:43.725Z,44.10
2019-04-26T15:01:20.955Z,45.50
2019-04-26T15:04:09.468Z,45.20
2019-04-26T15:06:42.382Z,44.80
2019-04-26T15:09:19.447Z,44.60
2019-04-26T15:11:53.428Z,45.30
2019-04-26T15:14:19.349Z,45.40
2019-04-26T15:16:46.051Z,46.10
2019-04-26T15:19:15.811Z,46.40
2019-04-26T15:21:45.150Z,46.30
2019-04-26T15:24:14.501Z,46.30
2019-04-26T15:26:44.074Z,47.90
2019-04-26T15:29:13.423Z,46.80
2019-04-26T15:31:42.758Z,47.00
2019-04-26T15:34:12.227Z,48.50
2019-04-26T15:36:43.442Z,48.00
2019-04-26T15:39:23.205Z,48.30
2019-04-26T15:42:29.294Z,48.90
2019-04-26T15:45:13.919Z,49.30
2019-04-26T15:47:58.041Z,49.50
2019-04-26T15:50:33.740Z,50.70
2019-04-26T15:53:06.605Z,49.60
2019-04-26T15:55:39.995Z,49.70
2019-04-26T15:58:08.336Z,49.50
2019-04-26T16:00:36.792Z,50.60
2019-04-26T16:03:07.504Z,50.70
2019-04-26T16:05:37.659Z,51.50
2019-04-26T16:08:07.077Z,52.60
2019-04-26T16:10:38.357Z,52.40
2019-04-26T16:13:17.969Z,52.50
2019-04-26T16:15:38.642Z,53.40
2019-04-26T16:18:10.719Z,54.10
2019-04-26T16:20:42.278Z,54.90
2019-04-26T16:23:13.118Z,53.90
2019-04-26T16:25:42.856Z,54.40
2019-04-26T16:28:31.033Z,54.90
2019-04-26T16:31:13.848Z,54.30
2019-04-26T16:33:44.828Z,54.80
2019-04-26T16:36:14.418Z,54.90
2019-04-26T16:38:44.056Z,54.70
2019-04-26T16:41:13.401Z,54.70
2019-04-26T16:43:50.839Z,53.80
2019-04-26T16:46:20.049Z,54.20
2019-04-26T16:48:44.847Z,54.50
2019-04-26T16:51:14.413Z,54.40
2019-04-26T16:54:02.543Z,54.70
2019-04-26T16:56:15.430Z,54.50
2019-04-26T16:58:45.319Z,55.00
2019-04-26T17:01:15.387Z,55.20
2019-04-26T17:03:48.039Z,54.90
2019-04-26T17:06:15.991Z,55.20
2019-04-26T17:08:49.901Z,55.80
2019-04-26T17:11:16.478Z,55.30
2019-04-26T17:13:51.281Z,56.10
2019-04-26T17:16:16.894Z,56.30
2019-04-26T17:18:46.299Z,56.90
2019-04-26T17:21:17.505Z,56.50
2019-04-26T17:24:13.118Z,57.00
2019-04-26T17:26:51.734Z,57.70
2019-04-26T17:29:21.070Z,57.60
2019-04-26T17:31:52.126Z,58.20
2019-04-26T17:34:23.551Z,57.90
2019-04-26T17:36:52.566Z,58.70
2019-04-26T17:39:22.614Z,58.50
2019-04-26T17:41:54.254Z,58.90
2019-04-26T17:44:26.713Z,59.10
2019-04-26T17:46:57.129Z,59.40
2019-04-26T17:49:27.324Z,59.00
2019-04-26T17:51:58.147Z,59.50
2019-04-26T17:54:43.797Z,59.90
2019-04-26T17:56:58.942Z,59.70
2019-04-26T17:59:33.757Z,59.90
2019-04-26T18:02:01.190Z,60.30
2019-04-26T18:04:36.029Z,60.10
2019-04-26T18:07:05.532Z,60.50
2019-04-26T18:09:45.842Z,61.10
2019-04-26T18:12:05.005Z,61.60
2019-04-26T18:14:34.342Z,60.90
2019-04-26T18:17:10.638Z,60.90
2019-04-26T18:20:07.972Z,60.70
2019-04-26T18:22:51.683Z,60.30
2019-04-26T18:25:21.031Z,60.40
2019-04-26T18:27:50.415Z,60.20
2019-04-26T18:30:20.318Z,60.50
2019-04-26T18:32:49.729Z,60.10
2019-04-26T18:35:19.150Z,60.50
2019-04-26T18:37:48.488Z,60.60
2019-04-26T18:40:20.607Z,60.70
2019-04-26T18:42:49.295Z,60.90
2019-04-26T18:45:25.897Z,61.30
2019-04-26T18:47:49.688Z,61.50
2019-04-26T18:50:19.031Z,61.70
2019-04-26T18:53:07.304Z,61.70
2019-04-26T18:55:36.674Z,62.50
2019-04-26T18:58:06.019Z,63.40
2019-04-26T19:00:38.304Z,63.10
2019-04-26T19:03:07.649Z,63.70
2019-04-26T19:05:36.987Z,64.40
2019-04-26T19:08:07.584Z,64.10
2019-04-26T19:10:37.387Z,64.40
2019-04-26T19:13:18.377Z,65.00
2019-04-26T19:15:56.499Z,65.40
2019-04-26T19:18:56.863Z,66.10
2019-04-26T19:21:38.947Z,66.70
2019-04-26T19:24:11.541Z,66.90
2019-04-26T19:26:36.418Z,67.70
2019-04-26T19:29:15.613Z,68.00
2019-04-26T19:31:36.937Z,68.70
2019-04-26T19:34:06.671Z,69.10
2019-04-26T19:36:36.008Z,70.30
2019-04-26T19:39:07.654Z,70.00
2019-04-26T19:41:37.003Z,70.30
2019-04-26T19:44:06.348Z,70.70
2019-04-26T19:47:03.255Z,71.70
2019-04-26T19:49:54.087Z,71.80
2019-04-26T19:52:45.015Z,72.20
2019-04-26T19:55:22.598Z,72.80
2019-04-26T19:58:20.545Z,73.70
2019-04-26T20:00:48.951Z,74.30
2019-04-26T20:03:18.299Z,74.50
2019-04-26T20:05:47.666Z,74.10
2019-04-26T20:08:16.995Z,74.90
2019-04-26T20:10:46.335Z,75.80
2019-04-26T20:13:16.725Z,76.50
2019-04-26T20:15:46.191Z,77.10
2019-04-26T20:18:17.448Z,77.70
2019-04-26T20:20:46.706Z,78.50
2019-04-26T20:23:16.116Z,79.10
2019-04-26T20:25:45.467Z,79.30
2019-04-26T20:28:14.814Z,81.10
2019-04-26T20:31:08.987Z,81.50
2019-04-26T20:33:39.182Z,82.30
2019-04-26T20:36:08.534Z,83.60
2019-04-26T20:38:43.715Z,84.70
2019-04-26T20:41:08.988Z,85.50
2019-04-26T20:43:45.613Z,86.50
2019-04-26T20:46:14.900Z,87.80
2019-04-26T20:48:42.503Z,88.70
2019-04-26T20:51:12.113Z,89.50
2019-04-26T20:53:43.832Z,90.40
2019-04-26T20:56:18.272Z,90.70
2019-04-26T20:58:47.063Z,91.10
2019-04-26T21:01:16.010Z,91.40
2019-04-26T21:03:46.220Z,91.70
2019-04-26T21:06:15.960Z,92.20
2019-04-26T21:08:45.422Z,92.80
2019-04-26T21:11:15.038Z,93.30
2019-04-26T21:13:44.379Z,93.80
2019-04-26T21:16:15.422Z,94.20
2019-04-26T21:18:45.154Z,94.60
2019-04-26T21:21:16.235Z,95.10
2019-04-26T21:23:47.206Z,96.10
2019-04-26T21:26:54.264Z,96.30
2019-04-26T21:29:41.676Z,96.50
2019-04-26T21:32:20.349Z,97.10
2019-04-26T21:34:51.079Z,98.30
2019-04-26T21:37:44.215Z,98.90
2019-04-26T21:40:26.249Z,99.90
2019-04-26T21:42:59.528Z,99.90
2019-04-26T21:45:30.726Z,99.90
2019-04-26T21:47:58.042Z,99.90
2019-04-26T21:50:29.116Z,99.90
2019-04-26T21:52:58.571Z,99.90
2019-04-26T21:55:35.253Z,99.90
2019-04-26T21:58:00.595Z,99.90
2019-04-26T22:00:53.935Z,99.90
2019-04-26T22:03:23.384Z,99.90
2019-04-26T22:05:54.076Z,99.90
2019-04-26T22:08:27.574Z,99.90
2019-04-26T22:10:56.987Z,99.90
2019-04-26T22:13:33.388Z,99.90
2019-04-26T22:16:30.642Z,99.90
2019-04-26T22:19:18.073Z,99.90
2019-04-26T22:22:06.880Z,99.90
2019-04-26T22:24:38.178Z,99.90
2019-04-26T22:27:07.571Z,99.90
2019-04-26T22:29:36.925Z,99.90
2019-04-26T22:32:06.682Z,99.90
2019-04-26T22:34:37.289Z,99.90
2019-04-26T22:37:11.320Z,99.90
2019-04-26T22:39:40.003Z,99.90
2019-04-26T22:42:10.395Z,99.90
2019-04-26T22:44:48.299Z,99.90
2019-04-26T22:47:28.655Z,99.90
2019-04-26T22:49:58.077Z,99.90
2019-04-26T22:52:27.494Z,99.90
2019-04-26T22:54:56.847Z,99.90
2019-04-26T22:57:26.268Z,99.90
2019-04-26T22:59:55.687Z,99.90
2019-04-26T23:02:27.642Z,99.90
2019-04-26T23:05:00.689Z,99.90
2019-04-26T23:07:28.407Z,99.90
2019-04-26T23:09:57.828Z,99.90
2019-04-26T23:12:34.764Z,99.90
2019-04-26T23:15:35.825Z,99.90
2019-04-26T23:18:38.809Z,99.90
2019-04-26T23:21:28.034Z,99.90
2019-04-26T23:23:57.380Z,99.90
2019-04-26T23:26:26.721Z,99.90
2019-04-26T23:28:56.118Z,99.90
2019-04-26T23:31:25.758Z,99.90
2019-04-26T23:33:55.099Z,99.90
2019-04-26T23:36:24.513Z,99.90
2019-04-26T23:38:53.888Z,99.90
2019-04-26T23:41:23.679Z,99.90
2019-04-26T23:43:56.805Z,99.90
2019-04-26T23:46:25.994Z,99.90
2019-04-26T23:48:55.514Z,99.90
2019-04-26T23:51:26.212Z,99.90
2019-04-26T23:53:57.810Z,99.90
2019-04-26T23:56:26.825Z,99.90
2019-04-26T23:58:56.178Z,99.90
